Time;durP1;ratioP1;P1;durP2;ratioP2;P2;SDS_P1;SDS_P2;PMS_P1;PMS_P2;Temp;Humidity;BMP_temperature;BMP_pressure;BME280_temperature;BME280_humidity;BME280_pressure;Samples;Min_cycle;Max_cycle;Signal;HPM_P1;HPM_P2
2022/01/17 00:00:57;;;;;;;64.10;24.80;;;;;;;0.53;100.00;99570.56;5110665;22;20571;-75
2022/01/17 00:03:25;;;;;;;61.33;24.60;;;;;;;0.53;100.00;99557.47;5119286;22;20203;-75
2022/01/17 00:05:53;;;;;;;70.13;26.33;;;;;;;0.51;100.00;99554.13;5119363;22;23118;-73
2022/01/17 00:08:19;;;;;;;57.23;22.70;;;;;;;0.56;100.00;99544.16;5159978;22;22844;-73
2022/01/17 00:10:46;;;;;;;66.83;26.17;;;;;;;0.54;100.00;99528.59;5123818;22;21678;-74
2022/01/17 00:13:26;;;;;;;65.00;25.87;;;;;;;0.55;100.00;99526.81;5113470;22;20214;-73
2022/01/17 00:15:58;;;;;;;64.30;24.47;;;;;;;0.54;100.00;99527.72;5109792;22;20539;-75
2022/01/17 00:21:13;;;;;;;70.97;27.03;;;;;;;0.57;100.00;99509.22;5098657;22;20259;-72
2022/01/17 00:23:40;;;;;;;70.10;25.37;;;;;;;0.60;100.00;99514.22;5128336;22;20296;-74
2022/01/17 00:26:07;;;;;;;79.20;29.17;;;;;;;0.56;100.00;99503.16;5106986;22;20393;-73
2022/01/17 00:28:33;;;;;;;74.53;26.53;;;;;;;0.60;100.00;99485.44;5110279;22;20206;-73
2022/01/17 00:31:01;;;;;;;77.50;27.57;;;;;;;0.56;100.00;99483.97;5127688;22;20842;-74
2022/01/17 00:33:28;;;;;;;83.90;29.17;;;;;;;0.61;100.00;99484.50;5105030;22;22163;-74
2022/01/17 00:35:54;;;;;;;66.53;26.90;;;;;;;0.63;100.00;99479.97;5100375;22;22829;-75
2022/01/17 00:38:21;;;;;;;78.43;28.90;;;;;;;0.62;100.00;99470.47;5098171;22;20218;-73
2022/01/17 00:40:47;;;;;;;87.30;30.77;;;;;;;0.58;100.00;99469.00;5119013;22;24208;-75
2022/01/17 00:43:14;;;;;;;73.53;27.40;;;;;;;0.64;100.00;99450.25;5090142;22;20811;-74
2022/01/17 00:45:43;;;;;;;87.23;28.57;;;;;;;0.65;100.00;99465.00;5118290;22;20207;-73
2022/01/17 00:48:11;;;;;;;76.13;29.00;;;;;;;0.64;100.00;99468.59;5106707;22;20368;-73
2022/01/17 00:50:39;;;;;;;70.37;28.03;;;;;;;0.66;100.00;99451.00;5143097;22;20209;-74
2022/01/17 00:53:07;;;;;;;84.87;28.50;;;;;;;0.68;100.00;99438.63;5104577;22;20202;-76
2022/01/17 00:55:35;;;;;;;90.47;32.13;;;;;;;0.68;100.00;99446.50;5123352;22;20201;-75
2022/01/17 00:58:03;;;;;;;88.03;30.90;;;;;;;0.72;100.00;99454.94;5108916;22;20202;-79
2022/01/17 01:00:30;;;;;;;85.43;28.90;;;;;;;0.72;100.00;99442.69;5156020;22;20246;-75
2022/01/17 01:02:56;;;;;;;86.37;30.20;;;;;;;0.73;100.00;99447.00;5139959;22;20261;-75
2022/01/17 01:05:23;;;;;;;91.63;30.00;;;;;;;0.69;100.00;99444.69;5137280;22;20201;-75
2022/01/17 01:07:51;;;;;;;90.97;29.37;;;;;;;0.71;100.00;99448.06;5100887;22;20206;-74
2022/01/17 01:10:17;;;;;;;83.03;29.80;;;;;;;0.75;100.00;99432.03;5080529;22;20242;-75
2022/01/17 01:12:46;;;;;;;80.90;28.97;;;;;;;0.74;100.00;99417.25;5103573;22;21529;-75
2022/01/17 01:15:19;;;;;;;89.80;32.27;;;;;;;0.71;100.00;99417.47;5122682;22;20281;-75
2022/01/17 01:17:50;;;;;;;90.57;29.53;;;;;;;0.75;100.00;99418.94;5106745;22;21351;-75
2022/01/17 01:20:35;;;;;;;91.13;30.47;;;;;;;0.76;100.00;99410.13;5105503;22;20198;-75
2022/01/17 01:28:34;;;;;;;102.20;33.20;;;;;;;0.74;100.00;99385.81;5102249;22;23452;-75
2022/01/17 01:31:04;;;;;;;76.07;27.87;;;;;;;0.75;100.00;99381.41;5111806;22;21851;-76
2022/01/17 01:33:37;;;;;;;94.67;32.77;;;;;;;0.77;100.00;99374.28;5117291;22;20332;-76
2022/01/17 01:36:10;;;;;;;91.97;32.23;;;;;;;0.80;100.00;99369.69;5116728;22;20379;-78
2022/01/17 01:38:39;;;;;;;97.67;34.17;;;;;;;0.80;100.00;99355.75;5135031;22;20210;-76
2022/01/17 01:41:07;;;;;;;90.70;29.33;;;;;;;0.80;100.00;99368.84;5117066;22;20637;-75
2022/01/17 01:43:35;;;;;;;92.63;33.07;;;;;;;0.83;100.00;99358.16;5119475;22;20264;-74
2022/01/17 01:46:02;;;;;;;101.23;33.40;;;;;;;0.86;100.00;99362.34;5073931;22;22886;-76
2022/01/17 01:48:31;;;;;;;94.73;29.60;;;;;;;0.84;100.00;99355.44;5115336;22;20251;-77
2022/01/17 01:50:57;;;;;;;89.77;33.83;;;;;;;0.86;100.00;99346.63;5133995;22;20280;-74
2022/01/17 01:53:25;;;;;;;90.73;34.20;;;;;;;0.86;100.00;99347.44;5110856;22;21204;-77
2022/01/17 01:55:54;;;;;;;99.27;33.77;;;;;;;0.85;100.00;99358.88;5098685;22;20279;-74
2022/01/17 01:58:22;;;;;;;93.97;33.40;;;;;;;0.92;100.00;99356.66;5114990;22;20377;-75
2022/01/17 02:00:48;;;;;;;96.70;33.03;;;;;;;0.96;100.00;99355.47;5109195;22;21701;-74
2022/01/17 02:03:15;;;;;;;87.77;33.63;;;;;;;0.94;100.00;99337.28;5110019;22;20213;-75
2022/01/17 02:05:43;;;;;;;70.47;28.73;;;;;;;0.99;100.00;99344.81;5090990;22;20203;-76
2022/01/17 02:08:11;;;;;;;96.77;34.07;;;;;;;0.99;100.00;99326.47;5141125;22;23633;-76
2022/01/17 02:10:38;;;;;;;91.50;32.37;;;;;;;1.00;100.00;99328.13;5119696;22;20309;-77
2022/01/17 02:13:05;;;;;;;84.67;33.13;;;;;;;1.00;100.00;99322.88;5115162;22;20197;-75
2022/01/17 02:15:32;;;;;;;79.83;29.73;;;;;;;1.04;100.00;99321.72;5127188;22;20210;-77
2022/01/17 02:17:59;;;;;;;97.00;32.40;;;;;;;1.08;100.00;99301.34;5116041;22;20212;-77
2022/01/17 02:20:35;;;;;;;85.30;32.70;;;;;;;1.07;100.00;99307.56;5116613;22;21641;-75
2022/01/17 02:23:04;;;;;;;90.87;32.87;;;;;;;1.05;100.00;99294.56;5101369;22;20265;-77
2022/01/17 02:25:31;;;;;;;84.77;33.43;;;;;;;1.03;100.00;99291.22;5158075;22;20370;-75
2022/01/17 02:27:57;;;;;;;89.30;30.67;;;;;;;1.09;100.00;99289.94;5102779;22;20207;-76
2022/01/17 02:30:26;;;;;;;82.33;30.97;;;;;;;1.06;100.00;99280.53;5114131;22;23396;-75
2022/01/17 02:32:53;;;;;;;84.77;30.23;;;;;;;1.05;100.00;99273.59;5113890;22;20562;-77
2022/01/17 02:35:22;;;;;;;85.00;31.83;;;;;;;1.09;100.00;99251.47;5118402;22;20216;-77
2022/01/17 02:37:49;;;;;;;78.73;32.17;;;;;;;1.09;100.00;99253.28;5125825;22;20208;-77
2022/01/17 02:40:17;;;;;;;75.13;28.63;;;;;;;1.15;100.00;99243.19;5089910;22;20202;-75
2022/01/17 02:42:46;;;;;;;88.00;32.07;;;;;;;1.17;100.00;99243.91;5108120;22;20267;-76
2022/01/17 02:48:04;;;;;;;84.10;33.17;;;;;;;1.21;100.00;99220.91;5116659;22;21585;-75
2022/01/17 02:50:30;;;;;;;75.50;27.63;;;;;;;1.26;100.00;99206.53;5124631;22;20218;-75
2022/01/17 02:53:02;;;;;;;75.03;31.80;;;;;;;1.29;100.00;99200.22;5106860;22;21226;-74
2022/01/17 02:55:29;;;;;;;73.93;31.07;;;;;;;1.30;100.00;99190.56;5105009;22;22114;-77
2022/01/17 02:57:56;;;;;;;80.97;31.07;;;;;;;1.30;100.00;99187.94;5092501;22;20205;-77
2022/01/17 03:00:22;;;;;;;81.83;30.97;;;;;;;1.31;100.00;99189.59;5120683;22;20202;-75
2022/01/17 03:02:49;;;;;;;84.10;32.30;;;;;;;1.32;100.00;99188.66;5117905;22;25301;-77
2022/01/17 03:05:16;;;;;;;76.90;32.07;;;;;;;1.33;100.00;99169.34;5103699;22;22857;-76
2022/01/17 03:07:44;;;;;;;75.77;29.70;;;;;;;1.36;100.00;99172.59;5137812;22;20249;-76
2022/01/17 03:10:31;;;;;;;74.03;29.13;;;;;;;1.40;100.00;99178.41;5103764;22;20225;-76
2022/01/17 03:13:05;;;;;;;66.60;27.27;;;;;;;1.51;100.00;99193.31;5144700;22;21739;-78
2022/01/17 03:15:32;;;;;;;66.33;26.97;;;;;;;1.51;100.00;99170.56;5148066;22;20205;-77
2022/01/17 03:17:59;;;;;;;71.07;31.00;;;;;;;1.50;100.00;99147.94;5117167;22;21382;-77
2022/01/17 03:20:25;;;;;;;62.77;24.90;;;;;;;1.51;100.00;99135.66;5106917;22;20197;-77
2022/01/17 03:22:52;;;;;;;66.13;25.87;;;;;;;1.52;100.00;99161.72;5128191;22;20203;-75
2022/01/17 03:25:18;;;;;;;60.17;25.37;;;;;;;1.59;100.00;99173.44;5122122;22;20206;-75
2022/01/17 03:27:45;;;;;;;62.27;25.27;;;;;;;1.59;100.00;99157.72;5122210;22;20632;-74
2022/01/17 03:30:12;;;;;;;54.93;25.00;;;;;;;1.63;100.00;99145.19;5130009;22;20261;-75
2022/01/17 03:32:39;;;;;;;58.03;23.53;;;;;;;1.66;100.00;99151.03;5106771;22;22028;-76
2022/01/17 03:35:07;;;;;;;56.57;24.00;;;;;;;1.67;100.00;99155.31;5128375;22;21101;-78
2022/01/17 03:37:33;;;;;;;59.07;24.30;;;;;;;1.67;100.00;99157.94;5121034;22;20211;-76
2022/01/17 03:40:00;;;;;;;48.07;20.63;;;;;;;1.67;100.00;99150.06;5121410;22;21733;-76
2022/01/17 03:42:27;;;;;;;54.57;23.63;;;;;;;1.68;100.00;99138.59;5117282;22;20718;-76
2022/01/17 03:44:54;;;;;;;53.23;22.40;;;;;;;1.71;100.00;99145.44;5098700;22;20290;-75
2022/01/17 03:47:21;;;;;;;61.07;24.70;;;;;;;1.72;100.00;99136.59;5113309;22;20206;-76
2022/01/17 03:49:47;;;;;;;49.10;22.83;;;;;;;1.71;100.00;99136.69;5127413;22;20630;-75
2022/01/17 03:52:14;;;;;;;51.43;22.33;;;;;;;1.69;100.00;99127.19;5118930;22;20212;-77
2022/01/17 03:54:41;;;;;;;49.80;23.43;;;;;;;1.73;100.00;99112.03;5115379;22;23347;-76
2022/01/17 03:57:08;;;;;;;56.07;24.10;;;;;;;1.75;100.00;99117.16;5114615;22;21707;-77
2022/01/17 03:59:35;;;;;;;53.93;23.63;;;;;;;1.76;100.00;99103.94;5145236;22;25309;-75
2022/01/17 04:02:03;;;;;;;48.80;21.93;;;;;;;1.83;100.00;99085.94;5120674;22;21164;-75
2022/01/17 04:04:30;;;;;;;46.67;21.07;;;;;;;1.81;100.00;99082.59;5135926;22;20325;-75
2022/01/17 04:06:56;;;;;;;50.50;22.10;;;;;;;1.76;100.00;99058.53;5138143;22;20926;-77
2022/01/17 04:09:23;;;;;;;50.10;21.93;;;;;;;1.75;100.00;99052.41;5133791;22;20215;-74
2022/01/17 04:11:49;;;;;;;47.33;20.47;;;;;;;1.79;100.00;99053.03;5132133;22;21642;-76
2022/01/17 04:14:17;;;;;;;40.43;19.83;;;;;;;1.80;100.00;99041.56;5131756;22;20256;-76
2022/01/17 04:16:43;;;;;;;48.00;21.27;;;;;;;1.82;100.00;99021.28;5128143;22;20277;-76
2022/01/17 04:19:11;;;;;;;43.23;20.67;;;;;;;1.81;100.00;99001.28;5142815;22;21905;-74
2022/01/17 04:21:38;;;;;;;50.63;21.43;;;;;;;1.85;100.00;98995.66;5106000;22;20266;-75
2022/01/17 04:24:05;;;;;;;47.07;19.70;;;;;;;1.87;100.00;98977.16;5104575;22;20436;-74
2022/01/17 04:26:32;;;;;;;46.90;20.00;;;;;;;1.81;100.00;99001.28;5123017;22;20199;-76
2022/01/17 04:28:58;;;;;;;49.87;20.17;;;;;;;1.82;100.00;98980.16;5132349;22;25441;-75
2022/01/17 04:31:25;;;;;;;45.90;21.10;;;;;;;1.78;100.00;98970.03;5122391;22;20222;-76
2022/01/17 04:33:52;;;;;;;41.00;20.37;;;;;;;1.82;100.00;98963.59;5127733;22;20693;-76
2022/01/17 04:36:18;;;;;;;46.93;20.97;;;;;;;1.83;100.00;98960.03;5122948;22;20424;-77
2022/01/17 04:38:45;;;;;;;45.97;19.90;;;;;;;1.83;100.00;98955.63;5109148;22;20210;-75
2022/01/17 04:41:16;;;;;;;46.50;20.67;;;;;;;1.86;100.00;98938.78;5134284;22;25056;-77
2022/01/17 04:46:16;;;;;;;43.90;18.97;;;;;;;1.90;100.00;98956.78;5137446;22;20222;-75
2022/01/17 04:48:42;;;;;;;40.70;19.10;;;;;;;1.92;100.00;98938.28;5122226;22;20212;-77
2022/01/17 04:51:09;;;;;;;46.00;18.10;;;;;;;1.94;100.00;98935.53;5133765;22;20300;-76
2022/01/17 04:53:35;;;;;;;44.23;18.50;;;;;;;1.98;100.00;98937.75;5138085;22;20221;-74
2022/01/17 04:56:02;;;;;;;39.00;17.37;;;;;;;2.07;100.00;98944.06;5108018;22;26748;-75
2022/01/17 04:58:29;;;;;;;36.87;16.37;;;;;;;2.11;100.00;98956.78;5105872;22;24077;-78
2022/01/17 05:00:55;;;;;;;36.17;15.97;;;;;;;2.13;100.00;98947.94;5111692;22;22263;-75
2022/01/17 05:03:24;;;;;;;34.67;15.47;;;;;;;2.19;100.00;98939.56;5113890;22;20223;-76
2022/01/17 05:05:53;;;;;;;35.67;16.10;;;;;;;2.21;100.00;98932.41;5113682;22;20201;-74
2022/01/17 05:08:20;;;;;;;31.23;14.10;;;;;;;2.23;100.00;98923.44;5138645;22;21422;-75
2022/01/17 05:10:51;;;;;;;27.97;14.20;;;;;;;2.21;100.00;98906.16;5103390;22;20206;-75
2022/01/17 05:13:22;;;;;;;28.70;13.77;;;;;;;2.28;100.00;98917.81;5135264;22;20208;-77
2022/01/17 05:16:05;;;;;;;27.03;12.10;;;;;;;2.34;100.00;98901.50;5144439;22;20215;-74
2022/01/17 05:21:03;;;;;;;27.37;11.60;;;;;;;2.41;100.00;98917.56;5112552;22;20206;-77
2022/01/17 05:23:29;;;;;;;23.00;11.07;;;;;;;2.41;100.00;98907.94;5147225;22;21557;-77
2022/01/17 05:25:56;;;;;;;28.90;10.73;;;;;;;2.46;100.00;98911.00;5138008;22;20200;-74
2022/01/17 05:28:22;;;;;;;26.93;10.17;;;;;;;2.49;99.48;98887.09;5120052;22;20352;-74
2022/01/17 05:30:49;;;;;;;16.60;8.53;;;;;;;2.49;99.04;98860.00;5098421;22;20207;-74
2022/01/17 05:33:15;;;;;;;26.33;10.37;;;;;;;2.52;99.11;98833.47;5127435;22;21802;-74
2022/01/17 05:35:42;;;;;;;18.60;9.73;;;;;;;2.52;99.22;98805.44;5145784;22;20211;-75
2022/01/17 05:38:11;;;;;;;20.43;9.17;;;;;;;2.50;98.87;98823.09;5098880;22;20202;-76
2022/01/17 05:40:37;;;;;;;19.93;9.90;;;;;;;2.56;99.25;98821.75;5133253;22;21170;-76
2022/01/17 05:43:04;;;;;;;23.77;9.77;;;;;;;2.63;98.61;98829.94;5102898;22;20295;-75
2022/01/17 05:45:30;;;;;;;20.33;9.97;;;;;;;2.59;99.12;98823.28;5104049;22;20204;-76
2022/01/17 05:47:57;;;;;;;23.57;9.87;;;;;;;2.62;99.13;98817.75;5123071;22;20547;-76
2022/01/17 05:50:23;;;;;;;18.60;8.83;;;;;;;2.61;98.83;98806.41;5117912;22;20204;-74
2022/01/17 05:52:50;;;;;;;23.83;10.30;;;;;;;2.59;99.20;98803.09;5122958;22;20577;-77
2022/01/17 05:55:17;;;;;;;22.90;10.20;;;;;;;2.61;99.59;98823.97;5104646;22;21737;-74
2022/01/17 05:57:44;;;;;;;21.73;10.13;;;;;;;2.61;99.49;98816.09;5110884;22;22108;-78
2022/01/17 06:00:13;;;;;;;23.97;9.43;;;;;;;2.59;99.42;98812.78;5145209;22;20202;-76
2022/01/17 06:02:40;;;;;;;22.93;9.97;;;;;;;2.53;99.51;98783.47;5118110;22;22893;-74
2022/01/17 06:05:07;;;;;;;21.27;9.97;;;;;;;2.55;99.45;98775.44;5128333;22;21066;-73
2022/01/17 06:07:34;;;;;;;18.00;9.37;;;;;;;2.52;99.99;98767.84;5143873;22;20202;-77
2022/01/17 06:10:00;;;;;;;19.77;8.97;;;;;;;2.59;98.94;98753.22;5106324;22;20198;-76
2022/01/17 06:12:27;;;;;;;18.30;8.33;;;;;;;2.61;98.88;98743.41;5149160;22;20811;-77
2022/01/17 06:14:53;;;;;;;18.10;8.30;;;;;;;2.58;99.21;98748.13;5128700;22;21546;-75
2022/01/17 06:17:20;;;;;;;21.67;8.83;;;;;;;2.57;98.89;98743.81;5112142;22;20273;-74
2022/01/17 06:19:47;;;;;;;17.10;7.70;;;;;;;2.58;98.83;98733.19;5156612;22;20197;-76
2022/01/17 06:22:13;;;;;;;18.73;8.37;;;;;;;2.58;99.97;98719.22;5142668;22;20201;-75
2022/01/17 06:24:40;;;;;;;20.90;8.93;;;;;;;2.52;100.00;98696.94;5125399;22;23546;-76
2022/01/17 06:27:07;;;;;;;21.10;8.73;;;;;;;2.46;100.00;98703.59;5141553;22;20414;-72
2022/01/17 06:29:33;;;;;;;21.17;7.63;;;;;;;2.45;100.00;98687.97;5137476;22;21664;-76
2022/01/17 06:32:00;;;;;;;19.77;8.53;;;;;;;2.42;100.00;98662.81;5125269;22;20785;-74
2022/01/17 06:34:46;;;;;;;22.57;8.90;;;;;;;2.36;100.00;98668.59;5122005;22;20620;-74
2022/01/17 06:37:13;;;;;;;19.27;8.83;;;;;;;2.29;100.00;98643.88;5115837;22;20212;-74
2022/01/17 06:39:41;;;;;;;21.20;8.43;;;;;;;2.35;100.00;98653.00;5123074;22;20261;-75
2022/01/17 06:42:07;;;;;;;19.17;8.23;;;;;;;2.39;100.00;98652.59;5121141;22;26137;-73
2022/01/17 06:44:34;;;;;;;17.70;9.23;;;;;;;2.34;100.00;98649.53;5107282;22;20204;-75
2022/01/17 06:47:01;;;;;;;20.17;8.77;;;;;;;2.33;100.00;98611.16;5115209;22;20236;-73
2022/01/17 06:49:28;;;;;;;18.17;8.13;;;;;;;2.35;100.00;98601.34;5109217;22;20882;-73
2022/01/17 06:51:54;;;;;;;16.33;8.03;;;;;;;2.38;100.00;98614.19;5103901;22;20210;-76
2022/01/17 06:54:21;;;;;;;22.77;8.73;;;;;;;2.32;100.00;98604.25;5111581;22;20634;-75
2022/01/17 06:56:48;;;;;;;18.70;8.20;;;;;;;2.37;100.00;98602.03;5126589;22;20210;-74
2022/01/17 06:59:15;;;;;;;16.17;7.23;;;;;;;2.36;100.00;98576.75;5095726;22;20216;-75
2022/01/17 07:01:42;;;;;;;14.17;7.50;;;;;;;2.39;100.00;98594.84;5105385;22;20246;-75
2022/01/17 07:04:09;;;;;;;16.53;7.00;;;;;;;2.46;100.00;98593.34;5101725;22;20218;-76
2022/01/17 07:06:37;;;;;;;16.27;7.27;;;;;;;2.49;100.00;98590.41;5094741;22;20208;-76
2022/01/17 07:09:05;;;;;;;16.23;6.07;;;;;;;2.48;100.00;98611.56;5084615;22;21786;-74
2022/01/17 07:11:38;;;;;;;14.57;6.47;;;;;;;2.52;100.00;98642.63;5137462;22;20295;-76
2022/01/17 07:14:11;;;;;;;15.80;6.00;;;;;;;2.59;100.00;98649.97;5106984;22;20272;-75
2022/01/17 07:16:39;;;;;;;15.00;6.13;;;;;;;2.54;100.00;98637.25;5099262;22;20234;-76
2022/01/17 07:19:06;;;;;;;13.03;5.03;;;;;;;2.59;100.00;98647.34;5139992;22;23489;-76
2022/01/17 07:21:35;;;;;;;11.57;5.37;;;;;;;2.56;100.00;98647.63;5083861;22;20209;-75
2022/01/17 07:24:02;;;;;;;10.73;4.73;;;;;;;2.51;100.00;98599.00;5114067;22;20203;-76
2022/01/17 07:26:29;;;;;;;13.70;5.30;;;;;;;2.52;100.00;98616.38;5124602;22;20199;-76
2022/01/17 07:28:55;;;;;;;15.40;5.50;;;;;;;2.45;100.00;98594.28;5102899;22;20209;-75
2022/01/17 07:31:22;;;;;;;12.57;4.70;;;;;;;2.43;100.00;98580.47;5112216;22;21115;-76
2022/01/17 07:33:48;;;;;;;13.53;4.97;;;;;;;2.43;100.00;98590.13;5098813;22;21195;-76
2022/01/17 07:36:27;;;;;;;15.83;4.50;;;;;;;2.45;100.00;98562.78;5112170;22;20677;-77
2022/01/17 07:38:53;;;;;;;9.53;3.40;;;;;;;2.40;100.00;98507.25;5098046;22;20206;-77
2022/01/17 07:41:20;;;;;;;10.90;4.30;;;;;;;2.41;100.00;98505.44;5183770;22;20248;-76
2022/01/17 07:43:57;;;;;;;11.00;4.40;;;;;;;2.41;100.00;98501.06;5113520;22;22871;-76
2022/01/17 07:46:29;;;;;;;9.67;3.80;;;;;;;2.39;100.00;98500.38;5116058;22;20206;-74
2022/01/17 07:49:03;;;;;;;11.73;4.07;;;;;;;2.39;100.00;98496.88;5139977;22;22758;-76
2022/01/17 07:51:30;;;;;;;11.80;4.20;;;;;;;2.39;100.00;98476.75;5144205;22;20452;-75
2022/01/17 07:53:57;;;;;;;10.27;3.93;;;;;;;2.44;100.00;98448.25;5106631;22;20409;-79
2022/01/17 07:56:24;;;;;;;9.07;4.47;;;;;;;2.40;100.00;98412.75;5177249;22;20205;-77
2022/01/17 07:58:51;;;;;;;8.77;4.20;;;;;;;2.40;100.00;98422.44;5127160;22;20353;-78
2022/01/17 08:01:19;;;;;;;13.30;4.47;;;;;;;2.39;100.00;98398.00;5081712;22;23065;-74
2022/01/17 08:03:46;;;;;;;13.87;4.57;;;;;;;2.38;100.00;98371.88;5126907;22;20337;-76
2022/01/17 08:06:13;;;;;;;13.23;4.90;;;;;;;2.44;100.00;98382.63;5132834;22;21239;-78
2022/01/17 08:08:40;;;;;;;11.73;4.80;;;;;;;2.39;100.00;98379.63;5121612;22;21123;-74
2022/01/17 08:11:09;;;;;;;10.00;4.20;;;;;;;2.42;100.00;98384.56;5169728;22;20512;-76
2022/01/17 08:13:36;;;;;;;11.97;4.37;;;;;;;2.43;100.00;98386.22;5149638;22;21200;-79
2022/01/17 08:16:03;;;;;;;13.67;4.73;;;;;;;2.45;100.00;98357.22;5119674;22;20207;-76
2022/01/17 08:18:30;;;;;;;12.37;4.27;;;;;;;2.42;100.00;98387.19;5197365;22;20542;-76
2022/01/17 08:20:58;;;;;;;10.97;4.43;;;;;;;2.42;100.00;98402.94;5120536;22;22254;-76
2022/01/17 08:23:25;;;;;;;14.03;4.40;;;;;;;2.39;100.00;98420.78;5139241;22;20202;-76
2022/01/17 08:25:51;;;;;;;11.03;4.20;;;;;;;2.41;100.00;98380.31;5152461;22;20680;-75
2022/01/17 08:28:21;;;;;;;10.30;3.43;;;;;;;2.44;100.00;98385.25;5106625;22;20757;-75
2022/01/17 08:30:47;;;;;;;9.47;3.50;;;;;;;2.47;100.00;98392.84;5152433;22;20204;-73
2022/01/17 08:33:34;;;;;;;8.90;3.13;;;;;;;2.47;100.00;98363.97;5129424;22;20585;-74
2022/01/17 08:36:02;;;;;;;12.73;3.70;;;;;;;2.57;100.00;98392.78;5162987;22;20388;-75
2022/01/17 08:38:43;;;;;;;15.40;3.83;;;;;;;2.60;100.00;98386.44;5116120;22;20244;-75
2022/01/17 08:41:10;;;;;;;16.23;3.93;;;;;;;2.59;100.00;98343.59;5116304;22;20203;-74
2022/01/17 08:43:37;;;;;;;11.20;3.90;;;;;;;2.54;100.00;98351.91;5111850;22;21785;-75
2022/01/17 08:46:06;;;;;;;11.93;3.87;;;;;;;2.59;100.00;98350.66;5141365;22;20199;-76
2022/01/17 08:48:33;;;;;;;12.10;2.77;;;;;;;2.57;100.00;98363.09;5117523;22;20206;-75
2022/01/17 08:51:00;;;;;;;13.77;3.40;;;;;;;2.50;100.00;98355.78;5119924;22;20198;-75
2022/01/17 08:53:27;;;;;;;10.30;3.50;;;;;;;2.47;100.00;98358.72;5112916;22;20547;-76
2022/01/17 08:55:53;;;;;;;12.07;3.67;;;;;;;2.53;100.00;98396.72;5121731;22;20368;-82
2022/01/17 08:58:20;;;;;;;15.20;3.43;;;;;;;2.58;100.00;98645.72;5129214;22;20205;-78
2022/01/17 09:00:47;;;;;;;2.67;0.97;;;;;;;1.60;100.00;98644.69;5109156;22;20210;-76
2022/01/17 09:03:19;;;;;;;2.77;0.53;;;;;;;0.51;100.00;98638.94;5136126;22;20292;-82
2022/01/17 09:05:48;;;;;;;1.57;0.50;;;;;;;-0.05;100.00;98655.66;5122197;22;21188;-78
2022/01/17 09:08:16;;;;;;;2.53;0.67;;;;;;;-0.26;100.00;98645.09;5124574;22;20252;-74
2022/01/17 09:10:42;;;;;;;0.97;0.50;;;;;;;-0.51;100.00;98658.41;5124543;22;20650;-77
2022/01/17 09:13:09;;;;;;;2.03;0.50;;;;;;;-0.48;100.00;98672.06;5124246;22;20791;-74
2022/01/17 09:15:36;;;;;;;3.50;1.00;;;;;;;-0.71;100.00;98673.00;5143309;22;20222;-77
2022/01/17 09:18:04;;;;;;;0.70;0.50;;;;;;;-0.66;100.00;98678.69;5136547;22;20202;-77
2022/01/17 09:20:34;;;;;;;1.80;0.70;;;;;;;-0.66;100.00;98683.91;5117275;22;20256;-77
2022/01/17 09:23:03;;;;;;;2.23;0.80;;;;;;;-0.62;100.00;98695.81;5111757;22;21569;-79
2022/01/17 09:25:29;;;;;;;1.63;0.80;;;;;;;-0.65;100.00;98701.28;5142068;22;21276;-74
2022/01/17 09:27:56;;;;;;;4.40;0.93;;;;;;;-0.66;100.00;98691.75;5122032;22;20203;-81
2022/01/17 09:30:22;;;;;;;3.40;0.80;;;;;;;-0.55;100.00;98697.00;5115913;22;20213;-77
2022/01/17 09:32:49;;;;;;;1.97;0.60;;;;;;;-0.53;100.00;98702.94;5166842;22;20400;-76
2022/01/17 09:35:15;;;;;;;4.83;1.00;;;;;;;-0.56;100.00;98725.84;5158119;22;21208;-77
2022/01/17 09:37:42;;;;;;;1.90;0.70;;;;;;;-0.50;100.00;98722.78;5135003;22;20224;-76
2022/01/17 09:40:10;;;;;;;2.97;0.40;;;;;;;-0.37;100.00;98728.72;5154407;22;20214;-74
2022/01/17 09:42:38;;;;;;;1.50;0.50;;;;;;;-0.32;100.00;98710.09;5137568;22;21201;-75
2022/01/17 09:45:07;;;;;;;1.43;0.70;;;;;;;-0.31;100.00;98701.28;5132598;22;20206;-77
2022/01/17 09:47:35;;;;;;;1.00;0.60;;;;;;;-0.28;100.00;98706.25;5119850;22;20355;-75
2022/01/17 09:50:03;;;;;;;3.13;0.80;;;;;;;-0.28;100.00;98704.50;5125695;22;20339;-76
2022/01/17 09:55:05;;;;;;;1.90;0.90;;;;;;;-0.19;100.00;98694.25;5144635;22;20263;-76
2022/01/17 09:57:38;;;;;;;5.10;1.20;;;;;;;-0.27;100.00;98687.84;5162885;22;20197;-75
2022/01/17 10:00:09;;;;;;;1.60;1.03;;;;;;;-0.26;100.00;98692.16;5158437;22;23313;-77
2022/01/17 10:02:36;;;;;;;3.73;1.20;;;;;;;-0.24;100.00;98687.59;5135642;22;20397;-76
2022/01/17 10:05:06;;;;;;;4.90;1.50;;;;;;;-0.34;100.00;98686.66;5165941;22;20256;-80
2022/01/17 10:08:04;;;;;;;2.90;1.27;;;;;;;-0.38;100.00;98707.94;5135870;22;20741;-79
2022/01/17 10:11:02;;;;;;;4.87;1.20;;;;;;;-0.43;100.00;98730.00;5156735;22;21587;-79
2022/01/17 10:13:37;;;;;;;4.13;1.60;;;;;;;-0.40;100.00;98712.44;5203597;22;20607;-78
2022/01/17 10:16:09;;;;;;;1.83;0.83;;;;;;;-0.45;100.00;98729.28;5123298;22;22716;-77
2022/01/17 10:18:40;;;;;;;3.27;1.10;;;;;;;-0.49;100.00;98740.13;5170547;22;20215;-77
2022/01/17 10:21:14;;;;;;;3.23;1.10;;;;;;;-0.50;100.00;98733.22;5140680;22;21658;-79
2022/01/17 10:24:07;;;;;;;3.43;1.50;;;;;;;-0.53;100.00;98723.84;5166292;22;20209;-77
2022/01/17 10:37:22;;;;;;;2.87;0.80;;;;;;;-0.34;100.00;98743.34;5178254;22;21320;-76
2022/01/17 10:39:54;;;;;;;3.60;1.17;;;;;;;-0.35;99.41;98736.44;5162735;22;20200;-74
2022/01/17 10:42:45;;;;;;;2.23;0.93;;;;;;;-0.35;99.53;98759.94;5143609;22;23984;-76
2022/01/17 10:45:17;;;;;;;6.00;0.97;;;;;;;-0.24;99.05;98770.41;5126665;22;21097;-77
2022/01/17 10:47:46;;;;;;;3.63;1.27;;;;;;;-0.24;98.33;98781.69;5144528;22;22127;-76
2022/01/17 10:50:18;;;;;;;4.30;1.10;;;;;;;-0.23;98.63;98793.00;5176448;22;20205;-78
2022/01/17 10:52:49;;;;;;;7.63;2.20;;;;;;;-0.15;98.61;98801.09;5160781;22;20328;-76
2022/01/17 10:55:30;;;;;;;10.90;2.40;;;;;;;0.02;98.67;98780.66;5143337;22;20530;-79
2022/01/17 10:58:02;;;;;;;9.93;2.90;;;;;;;-0.17;98.36;98770.78;5200106;22;20202;-80
2022/01/17 11:00:34;;;;;;;9.83;2.43;;;;;;;-0.24;98.47;98792.16;5198649;22;20706;-78
2022/01/17 11:03:04;;;;;;;6.50;2.07;;;;;;;-0.24;98.30;98809.63;5145958;22;20271;-77
2022/01/17 11:05:32;;;;;;;7.90;2.20;;;;;;;-0.13;97.85;98830.56;5180854;22;20263;-77
2022/01/17 11:08:01;;;;;;;6.67;2.03;;;;;;;-0.19;97.31;98828.41;5121458;22;20209;-78
2022/01/17 11:10:37;;;;;;;7.33;2.00;;;;;;;-0.39;97.59;98826.47;5156835;22;20965;-78
2022/01/17 11:13:09;;;;;;;6.27;2.03;;;;;;;-0.44;98.27;98838.09;5149010;22;20316;-77
2022/01/17 11:15:37;;;;;;;7.40;1.63;;;;;;;-0.35;98.32;98833.97;5220857;22;21380;-76
2022/01/17 11:18:16;;;;;;;5.03;1.57;;;;;;;0.01;97.96;98842.59;5208798;22;22595;-79
2022/01/17 11:20:44;;;;;;;3.70;1.20;;;;;;;0.28;95.84;98838.78;5244430;22;25016;-80
2022/01/17 11:23:10;;;;;;;4.70;1.40;;;;;;;0.37;94.67;98841.50;5219270;22;20220;-79
2022/01/17 11:25:41;;;;;;;3.90;1.30;;;;;;;0.47;94.89;98846.88;5243252;22;20205;-78
2022/01/17 11:28:11;;;;;;;6.37;1.40;;;;;;;0.62;91.97;98836.97;5324013;22;20205;-77
2022/01/17 11:30:39;;;;;;;4.87;1.43;;;;;;;0.59;92.78;98855.56;5365400;22;21236;-75
2022/01/17 11:33:11;;;;;;;5.67;1.77;;;;;;;0.73;92.19;98860.53;5249695;22;20359;-78
2022/01/17 11:35:42;;;;;;;5.00;2.00;;;;;;;0.78;90.71;98863.63;5175107;23;20561;-75
2022/01/17 11:38:14;;;;;;;9.70;1.90;;;;;;;0.80;90.60;98880.03;5150201;23;20202;-76
2022/01/17 11:40:43;;;;;;;15.27;3.23;;;;;;;0.78;91.03;98884.56;5206595;23;20721;-78
2022/01/17 11:43:34;;;;;;;7.17;1.63;;;;;;;0.87;90.09;98905.72;5309295;22;20381;-77
2022/01/17 11:46:18;;;;;;;7.17;1.77;;;;;;;1.09;88.94;98918.78;5196223;22;21244;-78
2022/01/17 11:49:07;;;;;;;6.07;1.90;;;;;;;1.13;87.61;98912.34;5241861;22;20225;-77
2022/01/17 11:51:48;;;;;;;9.33;1.60;;;;;;;1.36;85.55;98923.63;5263323;22;20804;-73
2022/01/17 11:54:17;;;;;;;7.97;2.00;;;;;;;1.45;83.85;98927.25;5182658;22;21176;-84
2022/01/17 11:56:53;;;;;;;7.13;1.90;;;;;;;1.51;81.95;98929.38;5174032;22;20269;-76
2022/01/17 11:59:27;;;;;;;4.43;1.70;;;;;;;1.46;81.53;98947.28;5111225;22;20202;-79
2022/01/17 12:02:17;;;;;;;5.07;1.40;;;;;;;1.33;80.95;98960.53;5109843;22;21496;-76